Time;durP1;ratioP1;P1;durP2;ratioP2;P2;SDS_P1;SDS_P2;PMS_P1;PMS_P2;Temp;Humidity;BMP_temperature;BMP_pressure;BME280_temperature;BME280_humidity;BME280_pressure;Samples;Min_cycle;Max_cycle;Signal;HPM_P1;HPM_P2
2022/10/22 00:00:06;;;;;;;2.70;2.35;;;15.80;90.30;;;;;;5072601;28;20473;-62
2022/10/22 00:02:31;;;;;;;4.75;1.70;;;15.80;90.30;;;;;;5073697;28;20041;-62
2022/10/22 00:04:57;;;;;;;2.08;1.10;;;15.80;90.60;;;;;;5074311;28;20036;-62
2022/10/22 00:07:24;;;;;;;1.23;0.85;;;15.80;90.00;;;;;;5075123;28;21016;-63
2022/10/22 00:09:50;;;;;;;1.83;1.00;;;15.70;89.90;;;;;;5073031;28;20435;-62
2022/10/22 00:12:16;;;;;;;2.05;0.65;;;15.70;89.90;;;;;;5073076;27;20039;-62
2022/10/22 00:14:42;;;;;;;0.95;0.47;;;15.60;89.80;;;;;;5074403;27;20036;-60
2022/10/22 00:17:07;;;;;;;1.77;0.60;;;15.60;89.80;;;;;;5072662;28;20051;-61
2022/10/22 00:19:33;;;;;;;1.52;0.63;;;15.60;89.80;;;;;;5074670;28;20506;-62
2022/10/22 00:21:59;;;;;;;1.38;0.80;;;15.60;90.00;;;;;;5074084;28;20048;-61
2022/10/22 00:24:25;;;;;;;0.85;0.50;;;15.50;90.00;;;;;;5074536;28;21242;-62
2022/10/22 00:26:51;;;;;;;1.35;0.52;;;15.60;90.00;;;;;;5075099;28;20032;-61
2022/10/22 00:29:18;;;;;;;0.68;0.40;;;15.60;90.00;;;;;;5073588;28;20045;-61
2022/10/22 00:31:48;;;;;;;0.85;0.40;;;15.50;89.90;;;;;;5075217;28;20127;-61
2022/10/22 00:34:18;;;;;;;0.60;0.40;;;15.50;89.90;;;;;;5074078;28;20499;-62
2022/10/22 00:36:45;;;;;;;1.80;0.40;;;15.60;89.80;;;;;;5072831;28;20091;-61
2022/10/22 00:39:12;;;;;;;1.75;0.40;;;15.60;89.80;;;;;;5073483;28;20379;-62
2022/10/22 00:41:38;;;;;;;0.63;0.40;;;15.50;89.70;;;;;;5072514;28;20032;-62
2022/10/22 00:44:05;;;;;;;0.50;0.30;;;15.60;89.70;;;;;;5073668;28;20032;-62
2022/10/22 00:46:31;;;;;;;1.65;0.52;;;15.50;89.60;;;;;;5073248;28;20119;-61
2022/10/22 00:49:00;;;;;;;0.30;0.30;;;15.60;89.70;;;;;;5073145;28;20127;-63
2022/10/22 00:51:30;;;;;;;0.60;0.30;;;15.60;89.70;;;;;;5073853;28;20032;-62
2022/10/22 00:54:01;;;;;;;0.40;0.40;;;15.60;89.70;;;;;;5068386;28;20028;-62
2022/10/22 00:56:27;;;;;;;1.50;0.60;;;15.60;89.60;;;;;;5072514;28;20602;-62
2022/10/22 00:58:57;;;;;;;3.78;0.50;;;15.60;89.50;;;;;;5072968;28;20036;-62
2022/10/22 01:01:27;;;;;;;4.20;0.40;;;15.60;89.30;;;;;;5076973;28;20643;-61
2022/10/22 01:03:53;;;;;;;0.30;0.30;;;15.60;89.20;;;;;;5073952;28;20039;-63
2022/10/22 01:06:38;;;;;;;0.30;0.30;;;15.60;89.20;;;;;;5074356;28;20032;-62
2022/10/22 01:09:28;;;;;;;0.68;0.20;;;15.60;88.90;;;;;;5068035;28;20043;-62
2022/10/22 01:12:00;;;;;;;0.60;0.30;;;15.60;89.10;;;;;;5072478;28;20039;-62
2022/10/22 01:14:37;;;;;;;0.82;0.40;;;15.70;89.20;;;;;;5073161;28;20055;-61
2022/10/22 01:17:20;;;;;;;1.13;0.30;;;15.60;89.00;;;;;;5073797;28;20024;-63
2022/10/22 01:19:49;;;;;;;3.72;0.50;;;15.60;88.80;;;;;;5072621;28;20062;-63
2022/10/22 01:22:42;;;;;;;0.22;0.20;;;15.60;88.80;;;;;;5072628;28;20021;-63
2022/10/22 01:25:18;;;;;;;0.90;0.30;;;15.60;88.60;;;;;;5071867;28;20032;-63
2022/10/22 01:28:17;;;;;;;1.20;0.20;;;15.60;88.60;;;;;;5073057;28;20033;-63
2022/10/22 01:30:45;;;;;;;0.75;0.22;;;15.60;88.60;;;;;;5072652;28;20032;-63
2022/10/22 01:33:14;;;;;;;2.25;0.40;;;15.60;88.80;;;;;;5074964;28;20036;-63
2022/10/22 01:35:43;;;;;;;0.80;0.28;;;15.60;88.70;;;;;;5073728;28;20043;-63
2022/10/22 01:38:17;;;;;;;0.38;0.15;;;15.50;88.70;;;;;;5070860;28;20437;-62
2022/10/22 01:40:44;;;;;;;0.60;0.25;;;15.50;88.80;;;;;;5072851;28;20055;-63
2022/10/22 01:43:10;;;;;;;1.85;0.20;;;15.60;89.00;;;;;;5074565;28;20036;-63
2022/10/22 01:45:49;;;;;;;1.98;0.20;;;15.50;89.00;;;;;;5075001;28;20128;-62
2022/10/22 01:48:29;;;;;;;0.98;0.30;;;15.60;88.90;;;;;;5074369;28;20326;-63
2022/10/22 01:51:21;;;;;;;2.22;0.30;;;15.50;89.00;;;;;;5075204;28;20419;-61
2022/10/22 01:53:56;;;;;;;0.80;0.30;;;15.50;88.30;;;;;;5077377;28;20037;-61
2022/10/22 01:56:40;;;;;;;1.00;0.20;;;15.60;88.20;;;;;;5072066;28;20568;-62
2022/10/22 01:59:30;;;;;;;0.67;0.20;;;15.40;88.20;;;;;;5073792;28;20069;-61
2022/10/22 02:02:11;;;;;;;1.33;0.30;;;15.40;88.40;;;;;;5077269;28;20282;-62
2022/10/22 02:05:11;;;;;;;0.32;0.20;;;15.40;88.50;;;;;;5075541;28;20431;-62
2022/10/22 02:07:43;;;;;;;0.57;0.30;;;15.30;88.60;;;;;;5076659;28;20040;-62
2022/10/22 02:10:10;;;;;;;0.50;0.40;;;15.20;88.60;;;;;;5077649;28;20517;-62
2022/10/22 02:12:38;;;;;;;0.93;0.50;;;15.20;88.80;;;;;;5074520;28;20054;-62
2022/10/22 02:15:04;;;;;;;1.25;0.57;;;15.20;88.90;;;;;;5076620;28;20046;-62
2022/10/22 02:17:34;;;;;;;1.90;0.60;;;15.10;89.10;;;;;;5078546;28;20064;-62
2022/10/22 02:20:10;;;;;;;0.70;0.50;;;15.10;89.30;;;;;;5077108;28;20323;-62
2022/10/22 02:22:36;;;;;;;2.13;0.50;;;15.00;89.40;;;;;;5077386;28;20028;-62
2022/10/22 02:25:02;;;;;;;3.00;0.60;;;15.00;89.50;;;;;;5074566;28;20043;-61
2022/10/22 02:27:43;;;;;;;2.75;0.43;;;15.10;89.60;;;;;;5075118;28;20044;-62
2022/10/22 02:30:15;;;;;;;1.20;0.30;;;15.10;89.80;;;;;;5076017;28;20032;-62
2022/10/22 02:32:48;;;;;;;0.77;0.50;;;15.00;89.80;;;;;;5076385;28;20047;-61
2022/10/22 02:35:21;;;;;;;0.55;0.30;;;15.00;89.90;;;;;;5077245;28;20448;-62
2022/10/22 02:37:49;;;;;;;0.98;0.32;;;15.00;89.90;;;;;;5076416;28;20047;-62
2022/10/22 02:40:15;;;;;;;0.93;0.40;;;15.10;89.90;;;;;;5076887;28;20040;-59
2022/10/22 02:42:42;;;;;;;2.75;0.40;;;15.10;89.80;;;;;;5076177;28;20112;-61
2022/10/22 02:45:08;;;;;;;2.10;0.45;;;15.10;89.70;;;;;;5076076;28;20118;-60
2022/10/22 02:47:33;;;;;;;3.35;0.40;;;15.10;89.70;;;;;;5077861;28;20036;-62
2022/10/22 02:49:59;;;;;;;0.57;0.40;;;15.00;89.70;;;;;;5075238;28;20554;-62
2022/10/22 02:52:24;;;;;;;0.50;0.30;;;15.00;89.70;;;;;;5075611;28;20441;-60
2022/10/22 02:54:50;;;;;;;2.03;0.50;;;15.00;89.70;;;;;;5076688;28;20569;-62
2022/10/22 02:57:15;;;;;;;1.13;0.60;;;15.00;89.80;;;;;;5075083;28;20828;-62
2022/10/22 02:59:41;;;;;;;0.90;0.50;;;15.00;90.00;;;;;;5076259;28;20032;-61
2022/10/22 03:02:07;;;;;;;0.25;0.25;;;15.00;90.00;;;;;;5076516;28;20068;-62
2022/10/22 03:04:32;;;;;;;1.67;0.40;;;14.90;90.00;;;;;;5076350;28;20404;-61
2022/10/22 03:06:58;;;;;;;0.93;0.40;;;14.90;90.00;;;;;;5075127;28;20040;-62
2022/10/22 03:09:23;;;;;;;2.20;0.38;;;14.90;90.00;;;;;;5078188;28;20036;-61
2022/10/22 03:11:49;;;;;;;0.73;0.40;;;14.90;90.00;;;;;;5075529;28;20495;-62
2022/10/22 03:14:15;;;;;;;1.55;0.40;;;14.90;90.10;;;;;;5076647;28;20036;-62
2022/10/22 03:16:40;;;;;;;0.30;0.30;;;14.90;90.10;;;;;;5076632;28;20043;-61
2022/10/22 03:19:06;;;;;;;0.73;0.40;;;14.80;90.10;;;;;;5077146;28;20418;-61
2022/10/22 03:21:41;;;;;;;1.60;0.60;;;14.80;90.10;;;;;;5076735;28;20032;-62
2022/10/22 03:24:16;;;;;;;2.15;0.40;;;14.80;90.20;;;;;;5074901;28;20456;-62
2022/10/22 03:26:43;;;;;;;0.77;0.40;;;14.70;90.30;;;;;;5075628;28;20400;-61
2022/10/22 03:29:11;;;;;;;3.90;0.70;;;14.70;90.30;;;;;;5074836;28;20047;-60
2022/10/22 03:31:37;;;;;;;0.77;0.70;;;14.70;90.40;;;;;;5075358;28;20146;-62
2022/10/22 03:34:02;;;;;;;0.88;0.63;;;14.70;90.40;;;;;;5076156;28;20052;-62
2022/10/22 03:36:28;;;;;;;1.58;0.73;;;14.70;90.50;;;;;;5075022;28;20105;-62
2022/10/22 03:38:54;;;;;;;1.38;0.55;;;14.70;90.50;;;;;;5075171;28;20093;-62
2022/10/22 03:41:20;;;;;;;1.17;0.70;;;14.70;90.50;;;;;;5076434;28;20087;-62
2022/10/22 03:43:48;;;;;;;0.80;0.68;;;14.70;90.50;;;;;;5074742;28;20503;-61
2022/10/22 03:46:15;;;;;;;2.25;0.57;;;14.70;90.50;;;;;;5076155;28;20359;-62
2022/10/22 03:48:40;;;;;;;0.70;0.55;;;14.70;90.50;;;;;;5075192;28;20034;-61
2022/10/22 03:51:06;;;;;;;0.77;0.60;;;14.70;90.50;;;;;;5077760;28;20040;-62
2022/10/22 03:53:32;;;;;;;0.63;0.50;;;14.70;90.50;;;;;;5076111;28;20052;-62
2022/10/22 03:55:57;;;;;;;1.10;0.57;;;14.60;90.50;;;;;;5074926;28;20040;-62
2022/10/22 03:58:23;;;;;;;3.22;0.40;;;14.70;90.60;;;;;;5074890;28;20051;-60
2022/10/22 04:00:48;;;;;;;1.10;0.55;;;14.60;90.50;;;;;;5075615;28;20614;-62
2022/10/22 04:03:14;;;;;;;0.30;0.30;;;14.60;90.50;;;;;;5075435;28;20036;-61
2022/10/22 04:05:40;;;;;;;5.57;0.73;;;14.70;90.50;;;;;;5075045;28;20040;-61
2022/10/22 04:08:05;;;;;;;0.50;0.50;;;14.70;90.50;;;;;;5076525;28;20591;-62
2022/10/22 04:10:31;;;;;;;0.57;0.50;;;14.60;90.50;;;;;;5073754;28;20028;-63
2022/10/22 04:12:56;;;;;;;26.38;14.63;;;14.70;90.50;;;;;;5073494;28;20043;-61
2022/10/22 04:15:22;;;;;;;7.10;3.97;;;14.70;90.50;;;;;;5074215;28;20419;-62
2022/10/22 04:17:48;;;;;;;1.98;1.35;;;14.60;90.50;;;;;;5076318;28;20522;-61
2022/10/22 04:20:13;;;;;;;0.88;0.80;;;14.60;90.50;;;;;;5073833;28;20035;-61
2022/10/22 04:22:39;;;;;;;1.00;0.88;;;14.60;90.70;;;;;;5074271;28;20028;-62
2022/10/22 04:25:05;;;;;;;1.20;0.50;;;14.60;90.60;;;;;;5075354;28;20036;-60
2022/10/22 04:27:32;;;;;;;1.67;0.52;;;14.60;90.60;;;;;;5074904;28;20031;-62
2022/10/22 04:29:57;;;;;;;1.95;0.40;;;14.60;90.60;;;;;;5074345;28;20036;-62
2022/10/22 04:32:24;;;;;;;0.60;0.60;;;14.60;90.70;;;;;;5073169;28;20046;-61
2022/10/22 04:34:49;;;;;;;0.95;0.60;;;14.60;90.80;;;;;;5074297;28;20485;-61
2022/10/22 04:37:15;;;;;;;0.50;0.50;;;14.60;90.70;;;;;;5073739;28;20036;-62
2022/10/22 04:39:40;;;;;;;0.65;0.65;;;14.60;90.70;;;;;;5074559;28;20461;-62
2022/10/22 04:42:06;;;;;;;0.55;0.50;;;14.60;90.70;;;;;;5074995;28;20050;-62
2022/10/22 04:44:32;;;;;;;0.60;0.60;;;14.50;90.80;;;;;;5073636;28;20035;-62
2022/10/22 04:46:57;;;;;;;1.95;0.70;;;14.40;90.70;;;;;;5074170;28;20101;-61
2022/10/22 04:49:23;;;;;;;3.88;0.70;;;14.50;90.80;;;;;;5073680;28;20160;-62
2022/10/22 04:51:49;;;;;;;1.40;0.50;;;14.40;90.80;;;;;;5075432;28;20064;-62
2022/10/22 04:54:14;;;;;;;0.70;0.70;;;14.40;90.90;;;;;;5071965;28;20036;-62
2022/10/22 04:56:40;;;;;;;0.60;0.60;;;14.40;90.90;;;;;;5075144;28;20046;-62
2022/10/22 04:59:07;;;;;;;0.77;0.70;;;14.40;90.90;;;;;;5074962;28;20032;-60
2022/10/22 05:01:36;;;;;;;0.75;0.75;;;14.40;91.00;;;;;;5076986;28;20044;-62
2022/10/22 05:04:04;;;;;;;0.82;0.60;;;14.40;91.00;;;;;;5072609;28;20044;-62
2022/10/22 05:06:32;;;;;;;0.40;0.40;;;14.40;91.00;;;;;;5072723;28;20067;-62
2022/10/22 05:09:06;;;;;;;2.75;0.65;;;14.40;91.10;;;;;;5075278;28;20130;-62
2022/10/22 05:11:35;;;;;;;1.33;0.80;;;14.30;91.10;;;;;;5074071;28;20036;-62
2022/10/22 05:14:03;;;;;;;1.58;0.50;;;14.40;91.10;;;;;;5076301;28;20044;-62
2022/10/22 05:16:29;;;;;;;0.60;0.60;;;14.40;91.00;;;;;;5073070;28;20044;-62
2022/10/22 05:18:57;;;;;;;0.82;0.40;;;14.40;91.00;;;;;;5075793;28;20036;-62
2022/10/22 05:21:23;;;;;;;2.00;0.60;;;14.40;91.00;;;;;;5074271;28;20032;-62
2022/10/22 05:23:49;;;;;;;0.45;0.45;;;14.30;91.00;;;;;;5074193;28;20157;-62
2022/10/22 05:26:17;;;;;;;0.70;0.70;;;14.40;91.00;;;;;;5071104;28;20047;-61
2022/10/22 05:28:43;;;;;;;0.50;0.40;;;14.40;91.10;;;;;;5075307;28;20089;-61
2022/10/22 05:31:10;;;;;;;4.03;0.60;;;14.30;91.00;;;;;;5074920;28;20040;-62
2022/10/22 05:33:36;;;;;;;2.95;0.65;;;14.30;91.00;;;;;;5074797;28;21445;-62
2022/10/22 05:36:04;;;;;;;0.30;0.30;;;14.30;91.00;;;;;;5074587;28;20036;-62
2022/10/22 05:38:31;;;;;;;0.30;0.30;;;14.30;91.00;;;;;;5075017;28;20453;-62
2022/10/22 05:41:02;;;;;;;0.35;0.35;;;14.40;91.00;;;;;;5073967;28;20132;-62
2022/10/22 05:43:28;;;;;;;0.30;0.30;;;14.40;91.00;;;;;;5074448;28;20036;-62
2022/10/22 05:45:54;;;;;;;0.98;0.38;;;14.40;91.00;;;;;;5074654;28;20131;-62
2022/10/22 05:48:20;;;;;;;0.70;0.45;;;14.40;91.00;;;;;;5075821;28;20119;-62
2022/10/22 05:50:49;;;;;;;0.40;0.40;;;14.40;91.00;;;;;;5076483;28;20048;-60
2022/10/22 05:53:16;;;;;;;0.40;0.40;;;14.40;90.90;;;;;;5076998;28;20102;-61
2022/10/22 05:55:41;;;;;;;0.50;0.50;;;14.40;90.90;;;;;;5076722;28;20040;-62
2022/10/22 05:58:08;;;;;;;0.95;0.60;;;14.40;90.90;;;;;;5076823;28;20040;-62
2022/10/22 06:00:33;;;;;;;2.47;1.25;;;14.40;91.00;;;;;;5077328;28;20393;-62
2022/10/22 06:02:59;;;;;;;2.67;0.70;;;14.40;91.30;;;;;;5075813;28;20538;-62
2022/10/22 06:05:25;;;;;;;2.55;1.73;;;14.40;90.90;;;;;;5076749;28;20523;-62
2022/10/22 06:07:50;;;;;;;4.07;3.35;;;14.40;91.00;;;;;;5073920;28;20082;-62
2022/10/22 06:10:18;;;;;;;1.60;1.50;;;14.40;91.00;;;;;;5072773;28;20047;-61
2022/10/22 06:12:44;;;;;;;2.38;1.45;;;14.40;91.00;;;;;;5071805;28;20446;-62
2022/10/22 06:15:14;;;;;;;11.73;7.50;;;14.50;90.90;;;;;;5072083;28;20044;-61
2022/10/22 06:17:40;;;;;;;5.38;3.97;;;14.50;90.90;;;;;;5074328;28;20036;-62
2022/10/22 06:20:07;;;;;;;1.55;1.40;;;14.50;90.90;;;;;;5071650;28;20025;-61
2022/10/22 06:22:33;;;;;;;0.85;0.73;;;14.50;90.80;;;;;;5072398;28;20029;-61
2022/10/22 06:24:58;;;;;;;1.30;0.32;;;14.50;90.80;;;;;;5073905;28;20092;-62
2022/10/22 06:27:24;;;;;;;0.50;0.50;;;14.50;90.80;;;;;;5074494;28;20416;-62
2022/10/22 06:29:49;;;;;;;0.30;0.30;;;14.50;90.80;;;;;;5074681;28;20115;-62
2022/10/22 06:32:15;;;;;;;1.10;0.82;;;14.50;90.80;;;;;;5074324;28;20062;-62
2022/10/22 06:34:40;;;;;;;0.88;0.28;;;14.60;91.20;;;;;;5072978;28;20267;-60
2022/10/22 06:37:07;;;;;;;0.40;0.40;;;14.50;90.80;;;;;;5075631;28;20029;-61
2022/10/22 06:39:32;;;;;;;0.35;0.30;;;14.50;90.80;;;;;;5076800;28;20735;-62
2022/10/22 06:41:58;;;;;;;2.10;1.88;;;14.60;90.80;;;;;;5078106;28;20043;-62
2022/10/22 06:44:23;;;;;;;1.80;1.50;;;14.60;90.80;;;;;;5078350;28;20070;-62
2022/10/22 06:46:53;;;;;;;0.82;0.73;;;14.60;90.80;;;;;;5075148;28;20400;-62
2022/10/22 06:49:20;;;;;;;2.50;1.30;;;14.50;90.80;;;;;;5076996;28;20404;-62
2022/10/22 06:51:49;;;;;;;1.30;1.13;;;14.60;90.80;;;;;;5074404;28;20029;-62
2022/10/22 06:54:15;;;;;;;2.28;2.05;;;14.60;90.90;;;;;;5077820;28;20078;-61
2022/10/22 06:56:41;;;;;;;0.60;0.60;;;14.60;90.80;;;;;;5077420;28;20130;-61
2022/10/22 06:59:06;;;;;;;0.75;0.75;;;14.60;90.90;;;;;;5077105;28;20120;-61
2022/10/22 07:01:33;;;;;;;0.20;0.20;;;14.60;90.90;;;;;;5074212;28;20028;-61
2022/10/22 07:04:00;;;;;;;1.65;0.50;;;14.60;90.90;;;;;;5076377;28;20575;-62
2022/10/22 07:06:27;;;;;;;0.98;0.90;;;14.60;91.00;;;;;;5076942;28;20464;-62
2022/10/22 07:08:57;;;;;;;2.08;1.98;;;14.60;91.00;;;;;;5076331;28;20037;-61
2022/10/22 07:11:28;;;;;;;3.30;3.00;;;14.70;91.00;;;;;;5077736;28;20067;-62
2022/10/22 07:13:56;;;;;;;1.83;1.73;;;14.70;91.00;;;;;;5075668;28;20063;-62
2022/10/22 07:16:22;;;;;;;2.17;1.88;;;14.70;91.00;;;;;;5074030;28;20795;-60
2022/10/22 07:18:47;;;;;;;0.50;0.40;;;14.80;90.90;;;;;;5078043;27;20036;-61
2022/10/22 07:21:15;;;;;;;1.20;1.00;;;14.80;90.80;;;;;;5078264;28;20226;-63
2022/10/22 07:23:41;;;;;;;1.23;0.60;;;14.80;90.80;;;;;;5077497;28;20067;-62
2022/10/22 07:26:08;;;;;;;1.35;1.00;;;14.80;90.80;;;;;;5076603;28;20040;-62
2022/10/22 07:28:38;;;;;;;1.85;0.60;;;14.80;90.70;;;;;;5078824;28;20470;-61
2022/10/22 07:31:05;;;;;;;0.55;0.50;;;14.90;90.80;;;;;;5076476;28;20447;-61
2022/10/22 07:33:30;;;;;;;0.50;0.43;;;14.90;90.80;;;;;;5077472;28;20279;-62
2022/10/22 07:35:58;;;;;;;0.50;0.30;;;14.90;90.80;;;;;;5076450;28;20024;-62
2022/10/22 07:38:24;;;;;;;2.58;2.00;;;14.90;90.80;;;;;;5076924;28;20028;-62
2022/10/22 07:40:50;;;;;;;1.90;1.27;;;14.90;90.80;;;;;;5067071;28;20043;-63
2022/10/22 07:43:15;;;;;;;0.30;0.30;;;14.90;90.80;;;;;;5069006;28;20442;-62
2022/10/22 07:45:41;;;;;;;0.50;0.30;;;15.00;90.90;;;;;;5063829;28;20037;-62
2022/10/22 07:48:07;;;;;;;2.92;0.40;;;15.00;90.90;;;;;;5063925;28;20040;-60
2022/10/22 07:50:32;;;;;;;0.20;0.20;;;15.00;90.90;;;;;;5070671;28;20500;-62
2022/10/22 07:52:58;;;;;;;0.65;0.45;;;15.00;90.90;;;;;;5073845;28;20103;-61
2022/10/22 07:55:23;;;;;;;1.38;0.57;;;15.10;90.90;;;;;;5071541;28;20128;-63
2022/10/22 07:57:49;;;;;;;1.52;0.60;;;15.20;91.00;;;;;;5070560;28;20028;-61
2022/10/22 08:00:15;;;;;;;0.85;0.35;;;15.20;90.90;;;;;;5073260;28;20064;-62
2022/10/22 08:02:41;;;;;;;0.28;0.20;;;15.20;90.90;;;;;;5072552;28;20032;-61
2022/10/22 08:05:07;;;;;;;0.30;0.30;;;15.20;90.80;;;;;;5070818;28;20041;-62
2022/10/22 08:07:33;;;;;;;0.63;0.55;;;15.30;90.80;;;;;;5073729;28;20041;-61
2022/10/22 08:09:58;;;;;;;0.93;0.68;;;15.30;90.80;;;;;;5072223;28;20068;-62
2022/10/22 08:12:24;;;;;;;0.77;0.50;;;15.40;90.80;;;;;;5065682;28;20101;-63
2022/10/22 08:14:49;;;;;;;14.65;7.40;;;15.40;90.70;;;;;;5073064;28;20032;-62
2022/10/22 08:17:15;;;;;;;7.10;5.10;;;15.40;90.70;;;;;;5073247;28;20560;-62
2022/10/22 08:19:47;;;;;;;3.13;2.50;;;15.50;90.70;;;;;;5073360;28;20036;-63
2022/10/22 08:22:12;;;;;;;1.60;1.50;;;15.50;90.70;;;;;;5075638;28;20040;-62
2022/10/22 08:24:38;;;;;;;3.47;2.22;;;15.50;90.70;;;;;;5077227;28;20043;-63
2022/10/22 08:27:03;;;;;;;2.42;1.38;;;15.60;90.80;;;;;;5076383;28;20033;-62
2022/10/22 08:29:29;;;;;;;1.75;1.27;;;15.60;90.80;;;;;;5076349;28;20032;-62
2022/10/22 08:31:55;;;;;;;3.33;1.15;;;15.60;91.00;;;;;;5078610;28;20131;-62
2022/10/22 08:34:20;;;;;;;4.43;1.20;;;15.70;91.00;;;;;;5076735;28;20033;-63
2022/10/22 08:36:46;;;;;;;2.03;0.75;;;15.70;91.00;;;;;;5075311;28;20127;-62
2022/10/22 08:39:12;;;;;;;1.10;1.00;;;15.80;91.00;;;;;;5075445;28;20500;-61
2022/10/22 08:41:59;;;;;;;1.00;0.80;;;15.90;91.10;;;;;;5075385;28;20397;-62
2022/10/22 08:44:44;;;;;;;1.25;0.57;;;15.90;91.00;;;;;;5072376;28;20285;-62
2022/10/22 08:47:42;;;;;;;3.65;1.10;;;16.00;91.00;;;;;;5072425;28;20654;-63
2022/10/22 08:50:18;;;;;;;1.17;0.47;;;16.10;91.00;;;;;;5073662;28;20036;-62
2022/10/22 08:52:50;;;;;;;0.63;0.63;;;16.10;90.80;;;;;;5076514;28;20040;-62
2022/10/22 08:55:24;;;;;;;2.00;1.90;;;16.20;90.70;;;;;;5077967;28;20124;-62
2022/10/22 08:58:16;;;;;;;2.20;1.90;;;16.30;90.60;;;;;;5072891;28;20024;-62
2022/10/22 09:00:54;;;;;;;2.88;2.42;;;16.30;90.50;;;;;;5076044;28;20033;-63
2022/10/22 09:03:40;;;;;;;1.67;1.50;;;16.30;90.40;;;;;;5076386;28;20052;-62
2022/10/22 09:06:21;;;;;;;4.07;3.72;;;16.40;90.30;;;;;;5076459;28;20044;-62
2022/10/22 09:08:48;;;;;;;1.95;1.80;;;16.40;90.20;;;;;;5076517;27;20036;-62
2022/10/22 09:11:36;;;;;;;1.80;1.48;;;16.50;90.30;;;;;;5076011;28;20679;-62
2022/10/22 09:14:03;;;;;;;1.83;1.65;;;16.50;90.20;;;;;;5076917;28;20029;-62
2022/10/22 09:17:00;;;;;;;3.03;2.83;;;16.50;90.20;;;;;;5071442;28;20502;-62
2022/10/22 09:20:03;;;;;;;0.88;0.70;;;16.60;90.20;;;;;;5071887;28;20033;-62
2022/10/22 09:22:35;;;;;;;2.80;2.60;;;16.60;90.10;;;;;;5066085;28;20505;-62
2022/10/22 09:25:20;;;;;;;0.68;0.68;;;16.70;90.20;;;;;;5072520;28;20056;-63
2022/10/22 09:27:46;;;;;;;0.70;0.60;;;16.70;90.00;;;;;;5074031;28;20036;-62
2022/10/22 09:30:21;;;;;;;0.70;0.70;;;16.70;90.10;;;;;;5071880;28;20119;-62
2022/10/22 09:32:53;;;;;;;1.20;0.70;;;16.70;90.00;;;;;;5068806;28;20036;-62
2022/10/22 09:35:23;;;;;;;0.60;0.60;;;16.80;90.00;;;;;;5073136;28;21309;-61
2022/10/22 09:37:54;;;;;;;1.52;1.05;;;16.80;89.90;;;;;;5069357;28;20039;-62
2022/10/22 09:40:20;;;;;;;1.13;0.70;;;16.80;89.90;;;;;;5073721;28;20040;-62
2022/10/22 09:42:46;;;;;;;1.33;0.80;;;16.90;89.90;;;;;;5070895;28;20028;-62
2022/10/22 09:45:22;;;;;;;2.45;1.00;;;16.90;89.90;;;;;;5067645;28;20044;-62
2022/10/22 09:47:48;;;;;;;0.70;0.60;;;16.90;89.60;;;;;;5071408;28;20074;-62
2022/10/22 09:50:29;;;;;;;1.40;0.77;;;17.00;89.70;;;;;;5070453;28;20554;-61
2022/10/22 09:53:04;;;;;;;4.13;1.70;;;17.10;89.00;;;;;;5068052;28;20041;-62
2022/10/22 09:55:29;;;;;;;2.55;1.50;;;17.10;89.00;;;;;;5071643;28;20036;-60
2022/10/22 09:57:59;;;;;;;0.90;0.90;;;17.10;89.20;;;;;;5074692;28;20407;-60
2022/10/22 10:00:26;;;;;;;5.20;0.85;;;17.10;89.10;;;;;;5076949;28;20036;-62
2022/10/22 10:02:59;;;;;;;0.50;0.47;;;17.20;89.50;;;;;;5076099;28;20035;-62
2022/10/22 10:05:29;;;;;;;0.85;0.60;;;17.30;89.30;;;;;;5077125;28;20380;-61
2022/10/22 10:07:55;;;;;;;1.10;0.40;;;17.30;89.20;;;;;;5076665;28;20040;-59
2022/10/22 10:10:47;;;;;;;1.90;0.60;;;17.40;89.00;;;;;;5080366;28;20122;-61
2022/10/22 10:13:22;;;;;;;0.90;0.50;;;17.50;88.60;;;;;;5080836;28;20461;-62
2022/10/22 10:16:01;;;;;;;0.93;0.65;;;17.50;88.30;;;;;;5080956;28;20033;-62
2022/10/22 10:18:56;;;;;;;1.30;0.60;;;17.60;88.60;;;;;;5081148;28;20165;-60
2022/10/22 10:21:41;;;;;;;2.28;0.50;;;17.70;87.60;;;;;;5082284;28;20037;-61
2022/10/22 10:24:12;;;;;;;;;;;17.70;87.70;;;;;;5081838;28;20071;-62
2022/10/22 10:26:49;;;;;;;1.35;0.70;;;17.80;87.30;;;;;;5079440;28;19923;-60
2022/10/22 10:29:34;;;;;;;1.90;0.57;;;17.80;87.40;;;;;;5081391;28;20100;-61
2022/10/22 10:32:57;;;;;;;1.88;0.68;;;17.90;86.90;;;;;;5080569;28;20036;-61
2022/10/22 10:35:35;;;;;;;3.05;0.70;;;17.90;86.20;;;;;;5054680;28;20044;-61
2022/10/22 10:38:30;;;;;;;1.30;0.80;;;18.00;86.70;;;;;;5055489;28;20041;-62
2022/10/22 10:41:15;;;;;;;1.65;0.82;;;18.00;85.50;;;;;;5074805;28;20036;-60
2022/10/22 10:44:20;;;;;;;0.50;0.50;;;18.00;85.70;;;;;;5080753;28;20153;-59
2022/10/22 10:47:04;;;;;;;1.95;0.68;;;18.10;85.70;;;;;;5080303;28;20036;-62
2022/10/22 10:49:33;;;;;;;0.80;0.80;;;18.20;85.30;;;;;;5080374;28;20083;-61
2022/10/22 10:52:31;;;;;;;2.97;0.60;;;18.30;85.70;;;;;;5079683;28;20047;-60
2022/10/22 10:55:21;;;;;;;1.50;0.77;;;18.30;84.30;;;;;;5065938;28;20059;-61
2022/10/22 10:57:49;;;;;;;1.50;0.93;;;18.40;84.30;;;;;;5080505;28;20033;-62
2022/10/22 11:00:20;;;;;;;1.25;0.75;;;18.40;85.00;;;;;;5080514;28;20120;-62
2022/10/22 11:03:07;;;;;;;1.00;0.80;;;18.50;84.80;;;;;;5079393;28;20647;-61
2022/10/22 11:05:59;;;;;;;1.85;0.63;;;18.50;83.90;;;;;;5080073;28;20032;-62
2022/10/22 11:08:30;;;;;;;1.83;0.50;;;18.60;83.90;;;;;;5078983;28;20059;-61
2022/10/22 11:11:11;;;;;;;2.10;0.93;;;18.60;84.10;;;;;;5077695;28;20504;-61
2022/10/22 11:13:44;;;;;;;1.23;0.98;;;18.70;83.40;;;;;;5080899;28;20291;-60
2022/10/22 11:16:23;;;;;;;1.95;1.00;;;18.70;83.40;;;;;;5079691;28;20491;-61
2022/10/22 11:19:02;;;;;;;1.60;0.90;;;18.70;83.30;;;;;;5079869;28;20036;-61
2022/10/22 11:21:39;;;;;;;2.35;0.85;;;18.80;83.00;;;;;;5079831;28;20036;-60
2022/10/22 11:24:36;;;;;;;1.88;0.68;;;18.80;82.90;;;;;;5080044;28;20034;-62
2022/10/22 11:27:20;;;;;;;1.88;0.70;;;18.90;82.50;;;;;;5079511;28;20082;-61
2022/10/22 11:29:52;;;;;;;2.70;1.00;;;18.90;81.20;;;;;;5080391;28;20518;-62
2022/10/22 11:32:21;;;;;;;1.23;0.90;;;18.90;82.00;;;;;;5079886;28;20127;-62
2022/10/22 11:34:53;;;;;;;2.38;1.13;;;19.00;81.30;;;;;;5078773;28;20032;-62
2022/10/22 11:37:21;;;;;;;1.55;0.90;;;19.00;80.90;;;;;;5078880;28;20036;-62
2022/10/22 11:40:07;;;;;;;1.30;0.90;;;19.10;81.30;;;;;;5080051;28;20098;-61
2022/10/22 11:42:37;;;;;;;2.13;0.70;;;19.10;79.10;;;;;;5079419;28;20155;-61
2022/10/22 11:45:27;;;;;;;1.20;0.68;;;19.20;80.00;;;;;;5080145;28;20047;-62
2022/10/22 11:48:05;;;;;;;0.70;0.50;;;19.20;79.30;;;;;;5080203;28;20031;-62
2022/10/22 11:50:40;;;;;;;1.75;0.70;;;19.20;79.60;;;;;;5079031;28;20043;-62
2022/10/22 11:53:18;;;;;;;1.98;0.70;;;19.30;78.80;;;;;;5078962;28;20042;-62
2022/10/22 11:55:50;;;;;;;0.93;0.40;;;19.30;78.70;;;;;;5079601;28;20082;-62
2022/10/22 11:58:28;;;;;;;1.70;0.68;;;19.40;79.20;;;;;;5079799;28;20522;-62
2022/10/22 12:01:08;;;;;;;2.53;0.77;;;19.40;79.40;;;;;;5080042;28;20056;-60
2022/10/22 12:03:35;;;;;;;4.13;0.82;;;19.50;77.70;;;;;;5079338;28;20034;-62
2022/10/22 12:06:03;;;;;;;1.70;0.70;;;19.50;78.50;;;;;;5078433;28;20028;-63
2022/10/22 12:08:30;;;;;;;2.15;0.52;;;19.50;77.50;;;;;;5078291;28;20063;-62
2022/10/22 12:11:11;;;;;;;1.20;0.55;;;19.60;77.90;;;;;;5078974;28;20042;-62
2022/10/22 12:13:51;;;;;;;1.05;0.50;;;19.60;76.70;;;;;;5078923;28;20066;-62
2022/10/22 12:16:18;;;;;;;1.23;0.50;;;19.70;76.70;;;;;;5076595;28;20416;-62
2022/10/22 12:18:44;;;;;;;1.55;0.60;;;19.70;77.40;;;;;;5078816;28;20040;-62
2022/10/22 12:21:14;;;;;;;2.28;0.50;;;19.70;76.60;;;;;;5078990;28;20036;-62
2022/10/22 12:23:41;;;;;;;2.38;0.70;;;19.70;76.40;;;;;;5078856;28;20036;-62
2022/10/22 12:26:33;;;;;;;2.33;0.60;;;19.70;76.60;;;;;;5077016;28;20131;-63
2022/10/22 12:29:01;;;;;;;1.95;0.55;;;19.70;75.80;;;;;;5078448;28;20040;-63
2022/10/22 12:31:27;;;;;;;1.90;0.65;;;19.70;76.90;;;;;;5077640;28;20538;-63
2022/10/22 12:33:59;;;;;;;1.50;0.65;;;19.80;76.80;;;;;;5078458;28;20067;-62
2022/10/22 12:36:30;;;;;;;1.58;0.50;;;19.80;75.80;;;;;;5077607;28;20155;-63
2022/10/22 12:38:59;;;;;;;1.08;0.60;;;19.80;75.50;;;;;;5078051;28;20068;-63
2022/10/22 12:41:33;;;;;;;4.60;0.50;;;19.90;75.70;;;;;;5077666;28;20032;-61
2022/10/22 12:44:00;;;;;;;2.00;0.70;;;19.90;75.10;;;;;;5074671;28;20495;-62
2022/10/22 12:46:26;;;;;;;2.15;0.52;;;19.90;76.00;;;;;;5074395;28;20051;-62
2022/10/22 12:48:52;;;;;;;2.35;0.70;;;19.90;76.00;;;;;;5075726;28;20039;-62
2022/10/22 12:51:19;;;;;;;3.83;0.90;;;19.90;76.20;;;;;;5078426;28;20053;-62
2022/10/22 12:53:48;;;;;;;1.73;1.00;;;20.00;75.70;;;;;;5077796;28;20176;-63
2022/10/22 12:56:19;;;;;;;1.45;0.70;;;20.00;75.40;;;;;;5077230;28;20131;-63
2022/10/22 12:59:06;;;;;;;1.20;0.60;;;20.00;75.40;;;;;;5076224;28;20066;-63
2022/10/22 13:01:36;;;;;;;0.75;0.50;;;20.00;74.90;;;;;;5077061;28;20475;-62
2022/10/22 13:04:25;;;;;;;1.95;0.82;;;20.10;74.50;;;;;;5078078;28;20074;-62
2022/10/22 13:07:12;;;;;;;1.10;0.60;;;20.10;74.60;;;;;;5076630;28;20032;-62